Cape Tainaro — 9HA4463 — position and weather

sailwx.info

Track history (hours):
 
Tides and Currents Weather Stations Pressure Air Temp Water Temp Dewpoint Dewpoint Depression Visibility Wind Speed Wind Dir Waves Ship Positions

Cape Tainaro

Last reported at 2018-Jun-14 12:37 UTC. Time now 2018-Jun-18 06:02 UTC.
Position N 01°33' E 104°41'.

Length 330 m; draft 10.2 m.

Type: Cargo ship. MMSI: 249982000.

Date/timePositionNaut miles runAvg speedWind from/ knotsBaromVisibWave heightAir tempDewpointWater temp
2018-Jun-14 12:37N 01°33' E 104°41'416.5
2018-Jun-14 12:24N 01°31' E 104°38'716.8
2018-Jun-14 12:00N 01°28' E 104°32'816.5
2018-Jun-14 11:30N 01°23' E 104°26'816.6
2018-Jun-14 11:00N 01°17' E 104°19'916.3
2018-Jun-14 10:27N 01°16' E 104°10'716.5
2018-Jun-14 10:00N 01°15' E 104°03'816.4
2018-Jun-14 09:30N 01°13' E 103°55'612.8
2018-Jun-14 09:00N 01°12' E 103°49'4 8.8
2018-Jun-14 08:30N 01°16' E 103°47'0 0.8
2018-Jun-14 08:00N 01°16' E 103°47'0 0.0
2018-Jun-14 07:30N 01°16' E 103°47'0 0.0
2018-Jun-14 07:00N 01°16' E 103°47'0 0.0
2018-Jun-14 06:30N 01°16' E 103°47'0 0.1
2018-Jun-14 06:00N 01°16' E 103°47'0 0.1
2018-Jun-14 05:30N 01°16' E 103°47'0 0.0
2018-Jun-14 05:00N 01°16' E 103°47'0 0.0
2018-Jun-14 04:30N 01°16' E 103°47'0 0.0
2018-Jun-14 03:58N 01°16' E 103°47'0 0.0
2018-Jun-14 03:30N 01°16' E 103°47'0 0.0
2018-Jun-14 03:00N 01°16' E 103°47'0 0.0
2018-Jun-14 02:30N 01°16' E 103°47'0 0.0
2018-Jun-14 02:00N 01°16' E 103°47'0 0.0
2018-Jun-14 01:28N 01°16' E 103°47'0 0.0
2018-Jun-14 01:00N 01°16' E 103°47'0 0.0
2018-Jun-14 00:30N 01°16' E 103°47'0 0.0
2018-Jun-14 00:00N 01°16' E 103°47'0 0.0
2018-Jun-13 23:28N 01°16' E 103°47'0 0.0
2018-Jun-13 23:00N 01°16' E 103°47'0 0.1
2018-Jun-13 22:30N 01°16' E 103°47'0 0.0
2018-Jun-13 22:00N 01°16' E 103°47'0 0.0
2018-Jun-13 21:30N 01°16' E 103°47'0 0.0
2018-Jun-13 20:58N 01°16' E 103°47'0 0.1
2018-Jun-13 20:30N 01°16' E 103°47'0 0.0
2018-Jun-13 20:00N 01°16' E 103°47'0 0.1
2018-Jun-13 19:28N 01°16' E 103°47'0 0.0
2018-Jun-13 19:00N 01°16' E 103°47'0 0.1
2018-Jun-13 18:30N 01°16' E 103°47'0 0.0
2018-Jun-13 18:00N 01°16' E 103°47'0 0.1
2018-Jun-13 17:29N 01°16' E 103°47'0 0.1
2018-Jun-13 17:00N 01°16' E 103°47'0 0.0
2018-Jun-13 16:30N 01°16' E 103°47'0 0.0
2018-Jun-13 15:58N 01°16' E 103°47'0 0.0
2018-Jun-13 15:30N 01°16' E 103°47'0 0.0
2018-Jun-13 15:00N 01°16' E 103°47'0 0.0
2018-Jun-13 14:30N 01°16' E 103°47'0 0.1
2018-Jun-13 13:58N 01°16' E 103°47'0 0.0
2018-Jun-13 13:30N 01°16' E 103°47'0 0.1
2018-Jun-13 13:00N 01°16' E 103°47'0 0.0
2018-Jun-13 12:28N 01°16' E 103°47'0 0.0
2018-Jun-13 11:57N 01°16' E 103°47'0 0.0
2018-Jun-13 11:30N 01°16' E 103°47'0 0.5
2018-Jun-13 11:00N 01°16' E 103°47'2 4.6
2018-Jun-13 10:30N 01°15' E 103°45'612.2
2018-Jun-13 09:59N 01°12' E 103°39'4 8.8
2018-Jun-13 09:30N 01°12' E 103°35'2 4.7
2018-Jun-13 09:00N 01°11' E 103°33'2 3.4
2018-Jun-13 08:30N 01°10' E 103°32'1 1.4
2018-Jun-13 08:00N 01°10' E 103°31'2 3.5
2018-Jun-13 07:31N 01°10' E 103°29'3 6.8
2018-Jun-13 07:00N 01°11' E 103°26'4 8.6
2018-Jun-13 06:30N 01°13' E 103°23'5 9.4
2018-Jun-13 06:00N 01°17' E 103°19'5 9.3
2018-Jun-13 05:30N 01°20' E 103°15'  
Track history (hours):
 
Tides and Currents Weather Stations Pressure Air Temp Water Temp Dewpoint Dewpoint Depression Visibility Wind Speed Wind Dir Waves Ship Positions

Cape Tainaro

Last reported at 2018-Jun-14 12:37 UTC. Time now 2018-Jun-18 06:02 UTC.
Position N 01°33' E 104°41'.

Length 330 m; draft 10.2 m.

Type: Cargo ship. MMSI: 249982000.

Date/timePositionNaut miles runAvg speedWind from/ knotsBaromVisibWave heightAir tempDewpointWater temp
2018-Jun-14 12:37N 01°33' E 104°41'416.5
2018-Jun-14 12:24N 01°31' E 104°38'716.8
2018-Jun-14 12:00N 01°28' E 104°32'816.5
2018-Jun-14 11:30N 01°23' E 104°26'816.6
2018-Jun-14 11:00N 01°17' E 104°19'916.3
2018-Jun-14 10:27N 01°16' E 104°10'716.5
2018-Jun-14 10:00N 01°15' E 104°03'816.4
2018-Jun-14 09:30N 01°13' E 103°55'612.8
2018-Jun-14 09:00N 01°12' E 103°49'4 8.8
2018-Jun-14 08:30N 01°16' E 103°47'0 0.8
2018-Jun-14 08:00N 01°16' E 103°47'0 0.0
2018-Jun-14 07:30N 01°16' E 103°47'0 0.0
2018-Jun-14 07:00N 01°16' E 103°47'0 0.0
2018-Jun-14 06:30N 01°16' E 103°47'0 0.1
2018-Jun-14 06:00N 01°16' E 103°47'0 0.1
2018-Jun-14 05:30N 01°16' E 103°47'0 0.0
2018-Jun-14 05:00N 01°16' E 103°47'0 0.0
2018-Jun-14 04:30N 01°16' E 103°47'0 0.0
2018-Jun-14 03:58N 01°16' E 103°47'0 0.0
2018-Jun-14 03:30N 01°16' E 103°47'0 0.0
2018-Jun-14 03:00N 01°16' E 103°47'0 0.0
2018-Jun-14 02:30N 01°16' E 103°47'0 0.0
2018-Jun-14 02:00N 01°16' E 103°47'0 0.0
2018-Jun-14 01:28N 01°16' E 103°47'0 0.0
2018-Jun-14 01:00N 01°16' E 103°47'0 0.0
2018-Jun-14 00:30N 01°16' E 103°47'0 0.0
2018-Jun-14 00:00N 01°16' E 103°47'0 0.0
2018-Jun-13 23:28N 01°16' E 103°47'0 0.0
2018-Jun-13 23:00N 01°16' E 103°47'0 0.1
2018-Jun-13 22:30N 01°16' E 103°47'0 0.0
2018-Jun-13 22:00N 01°16' E 103°47'0 0.0
2018-Jun-13 21:30N 01°16' E 103°47'0 0.0
2018-Jun-13 20:58N 01°16' E 103°47'0 0.1
2018-Jun-13 20:30N 01°16' E 103°47'0 0.0
2018-Jun-13 20:00N 01°16' E 103°47'0 0.1
2018-Jun-13 19:28N 01°16' E 103°47'0 0.0
2018-Jun-13 19:00N 01°16' E 103°47'0 0.1
2018-Jun-13 18:30N 01°16' E 103°47'0 0.0
2018-Jun-13 18:00N 01°16' E 103°47'0 0.1
2018-Jun-13 17:29N 01°16' E 103°47'0 0.1
2018-Jun-13 17:00N 01°16' E 103°47'0 0.0
2018-Jun-13 16:30N 01°16' E 103°47'0 0.0
2018-Jun-13 15:58N 01°16' E 103°47'0 0.0
2018-Jun-13 15:30N 01°16' E 103°47'0 0.0
2018-Jun-13 15:00N 01°16' E 103°47'0 0.0
2018-Jun-13 14:30N 01°16' E 103°47'0 0.1
2018-Jun-13 13:58N 01°16' E 103°47'0 0.0
2018-Jun-13 13:30N 01°16' E 103°47'0 0.1
2018-Jun-13 13:00N 01°16' E 103°47'0 0.0
2018-Jun-13 12:28N 01°16' E 103°47'0 0.0
2018-Jun-13 11:57N 01°16' E 103°47'0 0.0
2018-Jun-13 11:30N 01°16' E 103°47'0 0.5
2018-Jun-13 11:00N 01°16' E 103°47'2 4.6
2018-Jun-13 10:30N 01°15' E 103°45'612.2
2018-Jun-13 09:59N 01°12' E 103°39'4 8.8
2018-Jun-13 09:30N 01°12' E 103°35'2 4.7
2018-Jun-13 09:00N 01°11' E 103°33'2 3.4
2018-Jun-13 08:30N 01°10' E 103°32'1 1.4
2018-Jun-13 08:00N 01°10' E 103°31'2 3.5
2018-Jun-13 07:31N 01°10' E 103°29'3 6.8
2018-Jun-13 07:00N 01°11' E 103°26'4 8.6
2018-Jun-13 06:30N 01°13' E 103°23'5 9.4
2018-Jun-13 06:00N 01°17' E 103°19'5 9.3
2018-Jun-13 05:30N 01°20' E 103°15'  

Dump ship's entire track history